createdAt,value
2019-05-06T00:00:34.271Z,8.50
2019-05-06T00:01:38.485Z,7.50
2019-05-06T00:02:43.581Z,8.75
2019-05-06T00:03:48.013Z,8.25
2019-05-06T00:04:54.201Z,9.18
2019-05-06T00:05:58.489Z,9.25
2019-05-06T00:07:04.263Z,8.70
2019-05-06T00:08:08.583Z,8.90
2019-05-06T00:09:14.695Z,9.00
2019-05-06T00:10:30.381Z,9.97
2019-05-06T00:11:34.855Z,9.05
2019-05-06T00:12:39.261Z,9.48
2019-05-06T00:13:44.576Z,9.88
2019-05-06T00:14:48.982Z,9.40
2019-05-06T00:15:54.340Z,9.80
2019-05-06T00:16:59.765Z,10.08
2019-05-06T00:18:04.952Z,9.30
2019-05-06T00:19:09.235Z,9.78
2019-05-06T00:20:14.683Z,10.13
2019-05-06T00:21:20.070Z,10.20
2019-05-06T00:22:24.273Z,9.45
2019-05-06T00:23:30.241Z,10.32
2019-05-06T00:24:36.055Z,9.03
2019-05-06T00:25:44.822Z,9.20
2019-05-06T00:26:50.714Z,10.33
2019-05-06T00:28:14.914Z,10.32
2019-05-06T00:29:20.870Z,9.63
2019-05-06T00:30:25.225Z,9.75
2019-05-06T00:31:29.400Z,10.05
2019-05-06T00:32:34.878Z,10.03
2019-05-06T00:33:39.163Z,9.95
2019-05-06T00:34:44.451Z,10.32
2019-05-06T00:35:48.814Z,10.53
2019-05-06T00:36:54.528Z,10.15
2019-05-06T00:37:59.028Z,9.95
2019-05-06T00:39:07.114Z,9.18
2019-05-06T00:40:14.084Z,10.57
2019-05-06T00:41:35.898Z,9.57
2019-05-06T00:42:39.725Z,10.18
2019-05-06T00:43:43.953Z,10.32
2019-05-06T00:44:48.299Z,10.23
2019-05-06T00:45:53.653Z,9.48
2019-05-06T00:46:57.960Z,9.23
2019-05-06T00:48:04.503Z,9.65
2019-05-06T00:49:08.026Z,10.03
2019-05-06T00:50:14.234Z,10.03
2019-05-06T00:51:18.595Z,10.27
2019-05-06T00:52:23.934Z,8.93
2019-05-06T00:53:31.724Z,9.23
2019-05-06T00:54:36.291Z,10.07
2019-05-06T00:55:40.675Z,9.95
2019-05-06T00:56:46.481Z,10.03
2019-05-06T00:57:54.486Z,9.65
2019-05-06T00:59:03.687Z,9.33
2019-05-06T01:00:07.708Z,9.50
2019-05-06T01:01:24.114Z,8.67
2019-05-06T01:02:18.218Z,9.77
2019-05-06T01:03:23.863Z,9.07
2019-05-06T01:04:28.249Z,9.13
2019-05-06T01:05:33.749Z,9.43
2019-05-06T01:06:38.075Z,9.30
2019-05-06T01:07:43.989Z,9.33
2019-05-06T01:08:48.613Z,9.43
2019-05-06T01:09:54.173Z,9.05
2019-05-06T01:10:58.698Z,9.53
2019-05-06T01:12:03.724Z,9.40
2019-05-06T01:13:10.715Z,8.70
2019-05-06T01:14:20.740Z,9.23
2019-05-06T01:15:26.712Z,9.40
2019-05-06T01:16:30.934Z,9.83
2019-05-06T01:17:35.241Z,9.85
2019-05-06T01:18:39.566Z,10.08
2019-05-06T01:19:45.705Z,9.43
2019-05-06T01:20:51.637Z,8.48
2019-05-06T01:21:55.999Z,9.18
2019-05-06T01:23:00.249Z,9.75
2019-05-06T01:24:05.036Z,9.06
2019-05-06T01:25:09.301Z,10.00
2019-05-06T01:26:15.180Z,9.73
2019-05-06T01:27:19.488Z,9.77
2019-05-06T01:28:24.507Z,9.88
2019-05-06T01:29:28.796Z,8.83
2019-05-06T01:30:33.688Z,9.55
2019-05-06T01:31:42.914Z,9.85
2019-05-06T01:32:44.000Z,9.73
2019-05-06T01:33:48.182Z,9.70
2019-05-06T01:34:53.693Z,9.30
2019-05-06T01:35:58.221Z,9.65
2019-05-06T01:37:03.706Z,9.70
2019-05-06T01:38:21.547Z,8.95
2019-05-06T01:39:28.507Z,9.25
2019-05-06T01:40:34.625Z,9.35
2019-05-06T01:41:46.161Z,10.03
2019-05-06T01:42:54.019Z,9.28
2019-05-06T01:43:59.106Z,10.23
2019-05-06T01:45:04.704Z,9.70
2019-05-06T01:46:09.735Z,9.63
2019-05-06T01:47:14.556Z,9.57
2019-05-06T01:48:20.416Z,9.80
2019-05-06T01:49:24.677Z,9.30
2019-05-06T01:50:28.842Z,9.63
2019-05-06T01:51:34.814Z,9.35
2019-05-06T01:52:39.231Z,9.05
2019-05-06T01:53:44.826Z,8.93
2019-05-06T01:54:49.201Z,9.30
2019-05-06T01:55:54.606Z,9.48
2019-05-06T01:56:58.889Z,10.03
2019-05-06T01:58:04.987Z,10.08
2019-05-06T01:59:09.009Z,9.63
2019-05-06T02:00:14.067Z,9.27
2019-05-06T02:01:18.460Z,9.63
2019-05-06T02:02:23.883Z,9.57
2019-05-06T02:03:28.294Z,9.73
2019-05-06T02:04:33.699Z,9.28
2019-05-06T02:05:38.054Z,9.68
2019-05-06T02:06:43.723Z,8.95
2019-05-06T02:07:48.148Z,9.30
2019-05-06T02:08:54.019Z,9.25
2019-05-06T02:09:58.420Z,9.48
2019-05-06T02:11:04.138Z,10.18
2019-05-06T02:12:08.615Z,8.73
2019-05-06T02:13:14.237Z,9.43
2019-05-06T02:14:18.498Z,9.47
2019-05-06T02:15:23.882Z,9.03
2019-05-06T02:16:28.308Z,9.90
2019-05-06T02:17:34.386Z,9.75
2019-05-06T02:18:38.450Z,9.13
2019-05-06T02:19:43.837Z,9.75
2019-05-06T02:20:49.926Z,9.80
2019-05-06T02:21:55.808Z,9.50
2019-05-06T02:23:01.705Z,10.58
2019-05-06T02:24:13.542Z,9.98
2019-05-06T02:25:19.411Z,10.67
2019-05-06T02:26:23.981Z,10.32
2019-05-06T02:27:28.401Z,10.58
2019-05-06T02:28:34.457Z,9.33
2019-05-06T02:29:40.294Z,9.68
2019-05-06T02:30:46.129Z,9.40
2019-05-06T02:32:19.873Z,10.45
2019-05-06T02:33:26.774Z,9.78
2019-05-06T02:34:36.551Z,10.23
2019-05-06T02:35:48.470Z,9.73
2019-05-06T02:37:09.698Z,10.10
2019-05-06T02:38:32.593Z,9.80
2019-05-06T02:39:33.903Z,9.68
2019-05-06T02:40:36.499Z,10.40
2019-05-06T02:41:43.036Z,11.03
2019-05-06T02:42:46.607Z,10.50
2019-05-06T02:43:53.960Z,11.60
2019-05-06T02:44:56.809Z,10.25
2019-05-06T02:46:03.942Z,11.38
2019-05-06T02:47:24.736Z,9.88
2019-05-06T02:48:33.386Z,9.60
2019-05-06T02:49:38.238Z,10.40
2019-05-06T02:50:47.009Z,9.45
2019-05-06T02:51:53.452Z,11.10
2019-05-06T02:52:57.222Z,10.38
2019-05-06T02:54:03.307Z,9.18
2019-05-06T02:55:07.381Z,11.57
2019-05-06T02:56:13.411Z,11.10
2019-05-06T02:57:17.662Z,10.10
2019-05-06T02:58:23.696Z,11.00
2019-05-06T02:59:27.889Z,9.85
2019-05-06T03:00:32.977Z,11.08
2019-05-06T03:01:37.494Z,10.80
2019-05-06T03:02:44.893Z,10.32
2019-05-06T03:03:48.823Z,10.38
2019-05-06T03:04:53.150Z,9.20
2019-05-06T03:05:57.352Z,10.40
2019-05-06T03:07:03.686Z,10.75
2019-05-06T03:08:07.424Z,10.82
2019-05-06T03:09:13.451Z,11.63
2019-05-06T03:10:18.066Z,10.37
2019-05-06T03:11:23.971Z,10.80
2019-05-06T03:12:28.390Z,10.82
2019-05-06T03:13:33.935Z,9.73
2019-05-06T03:14:38.558Z,10.40
2019-05-06T03:15:43.481Z,10.65
2019-05-06T03:16:48.220Z,10.28
2019-05-06T03:17:55.092Z,10.65
2019-05-06T03:18:58.288Z,10.15
2019-05-06T03:20:04.567Z,9.95
2019-05-06T03:21:13.998Z,10.03
2019-05-06T03:22:19.983Z,10.43
2019-05-06T03:23:43.839Z,10.38
2019-05-06T03:24:49.848Z,9.65
2019-05-06T03:25:54.182Z,9.95
2019-05-06T03:26:58.624Z,10.15
2019-05-06T03:28:04.280Z,10.70
2019-05-06T03:29:08.687Z,10.28
2019-05-06T03:30:16.506Z,10.10
2019-05-06T03:31:19.230Z,10.53
2019-05-06T03:32:30.352Z,9.70
2019-05-06T03:33:46.642Z,10.55
2019-05-06T03:34:57.851Z,8.93
2019-05-06T03:35:56.135Z,10.05
2019-05-06T03:36:49.163Z,10.03
2019-05-06T03:37:53.591Z,9.65
2019-05-06T03:38:58.022Z,10.03
2019-05-06T03:40:03.053Z,9.95
2019-05-06T03:41:07.456Z,9.45
2019-05-06T03:42:13.682Z,9.17
2019-05-06T03:43:18.684Z,10.78
2019-05-06T03:44:23.903Z,9.73
2019-05-06T03:45:33.663Z,10.28
2019-05-06T03:46:55.820Z,9.98
2019-05-06T03:48:07.601Z,10.80
2019-05-06T03:49:13.488Z,10.20
2019-05-06T03:50:17.735Z,9.60
2019-05-06T03:51:23.459Z,10.40
2019-05-06T03:52:29.367Z,10.05
2019-05-06T03:53:34.900Z,10.45
2019-05-06T03:54:39.257Z,9.85
2019-05-06T03:55:46.770Z,10.58
2019-05-06T03:56:53.564Z,10.75
2019-05-06T03:57:57.196Z,10.08
2019-05-06T03:59:02.784Z,10.93
2019-05-06T04:00:08.090Z,10.28
2019-05-06T04:01:13.288Z,11.17
2019-05-06T04:02:17.870Z,10.90
2019-05-06T04:03:42.057Z,10.30
2019-05-06T04:04:29.493Z,10.15
2019-05-06T04:05:33.737Z,11.40
2019-05-06T04:06:37.990Z,10.72
2019-05-06T04:07:45.394Z,10.85
2019-05-06T04:08:49.044Z,10.85
2019-05-06T04:09:53.889Z,11.20
2019-05-06T04:10:58.182Z,10.35
2019-05-06T04:12:03.572Z,10.60
2019-05-06T04:13:09.129Z,11.18
2019-05-06T04:14:14.132Z,10.53
2019-05-06T04:15:18.470Z,11.57
2019-05-06T04:16:24.288Z,11.83
2019-05-06T04:17:32.718Z,10.20
2019-05-06T04:18:54.260Z,10.58
2019-05-06T04:20:04.053Z,9.28
2019-05-06T04:21:16.854Z,11.27
2019-05-06T04:22:25.707Z,11.10
2019-05-06T04:23:33.997Z,11.40
2019-05-06T04:24:49.040Z,10.78
2019-05-06T04:26:03.535Z,11.05
2019-05-06T04:27:26.266Z,10.30
2019-05-06T04:28:34.165Z,10.68
2019-05-06T04:29:37.977Z,10.60
2019-05-06T04:30:43.114Z,11.13
2019-05-06T04:31:47.582Z,10.45
2019-05-06T04:32:53.221Z,10.72
2019-05-06T04:34:09.831Z,12.18
2019-05-06T04:35:04.920Z,11.66
2019-05-06T04:36:09.206Z,10.88
2019-05-06T04:37:14.402Z,11.20
2019-05-06T04:38:18.896Z,11.43
2019-05-06T04:39:23.641Z,10.60
2019-05-06T04:40:27.988Z,11.80
2019-05-06T04:41:34.249Z,10.28
2019-05-06T04:42:38.277Z,11.68
2019-05-06T04:43:43.861Z,11.33
2019-05-06T04:44:48.373Z,10.65
2019-05-06T04:45:54.041Z,11.22
2019-05-06T04:46:58.641Z,12.20
2019-05-06T04:48:04.287Z,11.40
2019-05-06T04:49:14.078Z,11.65
2019-05-06T04:50:14.531Z,12.20
2019-05-06T04:51:18.789Z,12.30
2019-05-06T04:52:26.026Z,11.77
2019-05-06T04:53:29.018Z,11.55
2019-05-06T04:54:33.767Z,11.05
2019-05-06T04:55:39.118Z,12.30
2019-05-06T04:56:44.005Z,11.70
2019-05-06T04:57:48.438Z,11.78
2019-05-06T04:58:53.829Z,11.88
2019-05-06T04:59:58.330Z,11.63
2019-05-06T05:01:04.330Z,11.00
2019-05-06T05:02:08.819Z,11.40
2019-05-06T05:03:14.176Z,11.90
2019-05-06T05:04:28.289Z,11.25
2019-05-06T05:05:24.569Z,11.57
2019-05-06T05:06:28.828Z,11.15
2019-05-06T05:07:33.524Z,10.68
2019-05-06T05:08:38.409Z,11.43
2019-05-06T05:09:43.046Z,10.90
2019-05-06T05:10:54.918Z,11.35
2019-05-06T05:12:02.707Z,10.95
2019-05-06T05:13:08.445Z,11.00
2019-05-06T05:14:14.337Z,11.17
2019-05-06T05:15:20.209Z,11.30
2019-05-06T05:16:26.035Z,12.18
2019-05-06T05:17:46.780Z,10.85
2019-05-06T05:18:55.367Z,11.87
2019-05-06T05:19:59.559Z,11.78
2019-05-06T05:21:04.328Z,12.25
2019-05-06T05:22:08.521Z,11.90
2019-05-06T05:23:14.345Z,11.53
2019-05-06T05:24:18.523Z,11.57
2019-05-06T05:25:22.756Z,11.67
2019-05-06T05:26:28.622Z,12.05
2019-05-06T05:27:33.054Z,12.10
2019-05-06T05:28:37.276Z,12.18
2019-05-06T05:29:42.339Z,11.20
2019-05-06T05:30:46.663Z,11.03
2019-05-06T05:31:52.950Z,11.75
2019-05-06T05:32:56.977Z,11.48
2019-05-06T05:34:02.079Z,11.83
2019-05-06T05:35:06.879Z,11.88
2019-05-06T05:36:12.430Z,11.83
2019-05-06T05:37:16.819Z,11.13
2019-05-06T05:38:22.732Z,12.30
2019-05-06T05:39:27.098Z,12.60
2019-05-06T05:40:32.176Z,11.18
2019-05-06T05:41:36.593Z,12.30
2019-05-06T05:42:48.197Z,11.28
2019-05-06T05:43:58.263Z,11.78
2019-05-06T05:45:02.826Z,11.90
2019-05-06T05:46:07.101Z,11.38
2019-05-06T05:47:12.358Z,12.23
2019-05-06T05:48:32.432Z,11.57
2019-05-06T05:49:37.985Z,11.97
2019-05-06T05:50:43.633Z,12.15
2019-05-06T05:51:47.887Z,11.78
2019-05-06T05:52:52.458Z,13.28
2019-05-06T05:53:57.025Z,12.18
2019-05-06T05:55:02.747Z,12.43
2019-05-06T05:56:07.213Z,10.90
2019-05-06T05:57:11.923Z,12.33
2019-05-06T05:58:16.333Z,12.17
2019-05-06T05:59:23.169Z,11.93
2019-05-06T06:00:28.716Z,12.28
2019-05-06T06:01:32.965Z,12.30
2019-05-06T06:02:37.258Z,11.12
2019-05-06T06:03:42.169Z,12.18
2019-05-06T06:04:55.856Z,11.83
2019-05-06T06:05:52.373Z,11.48
2019-05-06T06:06:56.794Z,11.30
2019-05-06T06:08:02.875Z,11.57
2019-05-06T06:09:07.376Z,10.98
2019-05-06T06:10:13.274Z,11.57
2019-05-06T06:11:19.119Z,11.25
2019-05-06T06:12:23.400Z,11.67
2019-05-06T06:13:27.787Z,11.43
2019-05-06T06:14:43.728Z,11.57
2019-05-06T06:16:06.430Z,11.18
2019-05-06T06:17:32.500Z,11.27
2019-05-06T06:19:38.594Z,11.28
2019-05-06T06:24:36.463Z,11.15
2019-05-06T06:25:42.379Z,11.08
2019-05-06T06:26:46.608Z,10.18
2019-05-06T06:27:52.230Z,10.32
2019-05-06T06:28:56.507Z,10.48
2019-05-06T06:30:02.437Z,11.33
2019-05-06T06:31:15.975Z,11.80
2019-05-06T06:32:23.054Z,10.00
2019-05-06T06:33:27.812Z,10.38
2019-05-06T06:34:33.905Z,10.48
2019-05-06T06:35:42.618Z,10.03
2019-05-06T06:36:47.482Z,9.50
2019-05-06T06:37:56.478Z,8.90
2019-05-06T06:39:12.465Z,9.92
2019-05-06T06:40:22.133Z,10.50
2019-05-06T06:41:24.143Z,9.38
2019-05-06T06:42:28.703Z,9.60
2019-05-06T06:43:32.913Z,8.43
2019-05-06T06:44:37.140Z,8.70
2019-05-06T06:45:42.142Z,8.88
2019-05-06T06:46:46.632Z,8.90
2019-05-06T06:47:51.886Z,8.88
2019-05-06T06:48:56.213Z,9.00
2019-05-06T06:50:02.624Z,8.80
2019-05-06T06:51:06.284Z,8.53
2019-05-06T06:52:14.176Z,7.90
2019-05-06T06:53:16.879Z,7.37
2019-05-06T06:54:22.839Z,7.53
2019-05-06T06:55:27.207Z,8.10
2019-05-06T06:56:33.303Z,8.35
2019-05-06T06:57:42.521Z,8.25
2019-05-06T06:59:06.619Z,7.40
2019-05-06T07:00:13.491Z,8.00
2019-05-06T07:01:23.480Z,7.70
2019-05-06T07:02:35.978Z,8.28
2019-05-06T07:03:44.542Z,7.33
2019-05-06T07:04:52.590Z,7.22
2019-05-06T07:05:58.035Z,6.47
2019-05-06T07:07:03.905Z,6.35
2019-05-06T07:08:08.185Z,6.60
2019-05-06T07:09:12.653Z,6.63
2019-05-06T07:10:34.631Z,6.60
2019-05-06T07:11:38.807Z,6.62
2019-05-06T07:12:42.986Z,6.72
2019-05-06T07:13:53.505Z,6.72
2019-05-06T07:15:02.377Z,6.47
2019-05-06T07:16:06.279Z,6.35
2019-05-06T07:17:10.563Z,5.77
2019-05-06T07:18:15.589Z,7.30
2019-05-06T07:19:22.953Z,6.63
2019-05-06T07:20:32.374Z,6.62
2019-05-06T07:21:37.483Z,6.55
2019-05-06T07:22:42.504Z,6.47
2019-05-06T07:23:46.723Z,6.60
2019-05-06T07:24:52.702Z,6.45
2019-05-06T07:25:57.129Z,6.17
2019-05-06T07:27:03.120Z,6.80
2019-05-06T07:28:07.373Z,6.92
2019-05-06T07:29:15.330Z,6.47
2019-05-06T07:30:19.207Z,5.77
2019-05-06T07:31:26.494Z,6.43
2019-05-06T07:32:29.519Z,6.37
2019-05-06T07:33:34.064Z,5.85
2019-05-06T07:34:38.289Z,6.60
2019-05-06T07:35:43.959Z,6.92
2019-05-06T07:36:49.413Z,6.65
2019-05-06T07:37:53.925Z,6.37
2019-05-06T07:38:58.289Z,6.20
2019-05-06T07:40:03.156Z,6.55
2019-05-06T07:41:14.927Z,6.33
2019-05-06T07:42:19.770Z,6.20
2019-05-06T07:43:28.033Z,6.72
2019-05-06T07:44:46.002Z,6.62
2019-05-06T07:45:53.174Z,5.95
2019-05-06T07:47:04.833Z,5.97
2019-05-06T07:48:12.814Z,5.87
2019-05-06T07:49:18.143Z,6.97
2019-05-06T07:50:22.498Z,6.43
2019-05-06T07:51:27.213Z,5.90
2019-05-06T07:52:32.564Z,5.97
2019-05-06T07:53:37.008Z,6.55
2019-05-06T07:54:42.417Z,6.72
2019-05-06T07:55:46.768Z,7.17
2019-05-06T07:56:52.614Z,7.60
2019-05-06T07:57:57.211Z,7.65
2019-05-06T07:59:12.560Z,6.72
2019-05-06T08:00:16.199Z,7.37
2019-05-06T08:01:25.974Z,6.87
2019-05-06T08:02:27.953Z,6.50
2019-05-06T08:03:32.949Z,7.17
2019-05-06T08:04:37.404Z,6.55
2019-05-06T08:05:54.822Z,6.55
2019-05-06T08:06:47.562Z,6.58
2019-05-06T08:07:55.046Z,7.42
2019-05-06T08:08:57.862Z,6.97
2019-05-06T08:10:02.370Z,7.30
2019-05-06T08:11:07.867Z,7.25
2019-05-06T08:12:12.673Z,7.73
2019-05-06T08:13:16.978Z,7.60
2019-05-06T08:14:22.579Z,7.47
2019-05-06T08:15:27.221Z,6.90
2019-05-06T08:16:33.103Z,6.87
2019-05-06T08:17:38.361Z,6.37
2019-05-06T08:18:43.358Z,5.90
2019-05-06T08:19:47.554Z,6.57
2019-05-06T08:20:52.067Z,7.25
2019-05-06T08:22:02.664Z,6.90
2019-05-06T08:23:12.562Z,8.38
2019-05-06T08:24:16.906Z,9.70
2019-05-06T08:25:22.982Z,9.93
2019-05-06T08:26:27.274Z,8.23
2019-05-06T08:27:32.971Z,7.08
2019-05-06T08:28:41.414Z,7.17
2019-05-06T08:29:43.303Z,7.78
2019-05-06T08:30:47.639Z,7.60
2019-05-06T08:31:52.480Z,7.95
2019-05-06T08:32:57.111Z,7.20
2019-05-06T08:34:02.670Z,6.20
2019-05-06T08:35:09.956Z,7.00
2019-05-06T08:36:15.048Z,6.70
2019-05-06T08:37:23.850Z,7.60
2019-05-06T08:38:28.026Z,6.67
2019-05-06T08:39:32.778Z,7.95
2019-05-06T08:40:37.177Z,7.70
2019-05-06T08:41:42.312Z,7.22
2019-05-06T08:42:47.759Z,7.90
2019-05-06T08:43:52.861Z,6.50
2019-05-06T08:44:57.399Z,6.00
2019-05-06T08:46:03.203Z,8.20
2019-05-06T08:47:07.815Z,7.05
2019-05-06T08:48:13.070Z,6.93
2019-05-06T08:49:17.430Z,6.40
2019-05-06T08:50:23.374Z,6.20
2019-05-06T08:51:35.212Z,6.10
2019-05-06T08:52:57.258Z,6.30
2019-05-06T08:54:03.311Z,6.28
2019-05-06T08:55:07.835Z,5.85
2019-05-06T08:56:16.398Z,5.17
2019-05-06T08:57:19.822Z,4.80
2019-05-06T08:58:25.908Z,4.80
2019-05-06T08:59:32.095Z,4.55
2019-05-06T09:00:38.274Z,4.95
2019-05-06T09:01:44.162Z,4.92
2019-05-06T09:02:48.749Z,4.33
2019-05-06T09:04:06.433Z,5.05
2019-05-06T09:04:59.115Z,5.22
2019-05-06T09:06:03.414Z,5.58
2019-05-06T09:07:07.588Z,5.90
2019-05-06T09:08:13.700Z,6.13
2019-05-06T09:09:17.741Z,5.70
2019-05-06T09:10:22.805Z,5.40
2019-05-06T09:11:27.189Z,6.37
2019-05-06T09:12:32.935Z,5.83
2019-05-06T09:13:38.936Z,6.28
2019-05-06T09:14:43.658Z,7.95
2019-05-06T09:15:47.861Z,7.15
2019-05-06T09:16:53.886Z,8.85
2019-05-06T09:17:58.571Z,6.10
2019-05-06T09:19:04.249Z,7.10
2019-05-06T09:20:09.190Z,7.03
2019-05-06T09:21:13.999Z,6.33
2019-05-06T09:22:18.175Z,6.47
2019-05-06T09:23:22.734Z,6.30
2019-05-06T09:24:27.201Z,5.70
2019-05-06T09:25:32.263Z,5.72
2019-05-06T09:26:39.484Z,6.27
2019-05-06T09:27:48.350Z,5.55
2019-05-06T09:28:54.344Z,6.12
2019-05-06T09:30:02.841Z,5.95
2019-05-06T09:31:09.725Z,6.12
2019-05-06T09:32:18.981Z,5.87
2019-05-06T09:33:24.800Z,5.27
2019-05-06T09:34:36.414Z,5.47
2019-05-06T09:35:42.241Z,5.10
2019-05-06T09:36:52.657Z,4.55
2019-05-06T09:37:55.033Z,4.85
2019-05-06T09:38:59.488Z,4.70
2019-05-06T09:40:04.242Z,5.12
2019-05-06T09:41:09.402Z,5.22
2019-05-06T09:42:14.338Z,4.80
2019-05-06T09:43:18.800Z,4.63
2019-05-06T09:44:23.052Z,4.37
2019-05-06T09:45:27.328Z,4.40
2019-05-06T09:46:32.194Z,5.00
2019-05-06T09:47:44.325Z,5.00
2019-05-06T09:49:03.371Z,4.75
2019-05-06T09:50:09.271Z,4.87
2019-05-06T09:51:14.619Z,4.93
2019-05-06T09:52:19.489Z,5.17
2019-05-06T09:53:28.472Z,4.87
2019-05-06T09:54:34.535Z,5.87
2019-05-06T09:55:43.198Z,5.12
2019-05-06T09:56:49.270Z,6.10
2019-05-06T09:57:58.123Z,6.42
2019-05-06T09:59:02.431Z,5.80
2019-05-06T10:00:07.169Z,5.62
2019-05-06T10:01:13.207Z,5.70
2019-05-06T10:02:17.554Z,5.53
2019-05-06T10:03:22.602Z,5.40
2019-05-06T10:04:27.083Z,5.05
2019-05-06T10:05:31.575Z,5.25
2019-05-06T10:06:36.496Z,5.72
2019-05-06T10:07:41.000Z,5.80
2019-05-06T10:08:45.191Z,5.40
2019-05-06T10:09:52.361Z,5.08
2019-05-06T10:10:59.736Z,5.45
2019-05-06T10:12:02.288Z,5.03
2019-05-06T10:13:06.465Z,5.60
2019-05-06T10:14:12.912Z,4.90
2019-05-06T10:15:17.801Z,5.27
2019-05-06T10:16:22.070Z,5.87
2019-05-06T10:17:26.336Z,5.70
2019-05-06T10:18:31.032Z,5.67
2019-05-06T10:19:35.601Z,5.08
2019-05-06T10:20:44.135Z,4.92
2019-05-06T10:21:48.895Z,5.20
2019-05-06T10:22:53.133Z,4.95
2019-05-06T10:23:57.394Z,5.22
2019-05-06T10:25:03.654Z,5.65
2019-05-06T10:26:09.153Z,5.43
2019-05-06T10:27:16.420Z,5.33
2019-05-06T10:28:38.539Z,5.00
2019-05-06T10:29:44.793Z,5.10
2019-05-06T10:30:49.135Z,5.00
2019-05-06T10:32:00.925Z,5.60
2019-05-06T10:33:10.816Z,5.05
2019-05-06T10:34:15.409Z,5.45
2019-05-06T10:35:19.582Z,5.35
2019-05-06T10:36:23.764Z,5.72
2019-05-06T10:37:33.574Z,5.43
2019-05-06T10:38:47.346Z,5.70
2019-05-06T10:40:16.229Z,5.42
2019-05-06T10:41:22.509Z,5.90
2019-05-06T10:42:34.346Z,5.95
2019-05-06T10:44:00.034Z,5.10
2019-05-06T10:45:16.646Z,5.50
2019-05-06T10:46:22.563Z,5.43
2019-05-06T10:47:26.840Z,5.15
2019-05-06T10:48:31.424Z,5.87
2019-05-06T10:49:36.029Z,5.22
2019-05-06T10:50:42.418Z,5.67
2019-05-06T10:51:54.445Z,5.08
2019-05-06T10:53:02.549Z,5.22
2019-05-06T10:54:06.609Z,5.22
2019-05-06T10:55:12.293Z,5.53
2019-05-06T10:56:32.122Z,4.83
2019-05-06T10:57:40.382Z,4.60
2019-05-06T10:58:44.400Z,4.78
2019-05-06T10:59:48.743Z,4.47
2019-05-06T11:00:54.698Z,4.87
2019-05-06T11:02:05.024Z,4.42
2019-05-06T11:03:27.751Z,5.10
2019-05-06T11:04:33.127Z,4.65
2019-05-06T11:05:37.388Z,4.60
2019-05-06T11:06:42.973Z,4.47
2019-05-06T11:07:47.480Z,4.75
2019-05-06T11:08:52.511Z,4.78
2019-05-06T11:09:56.967Z,4.87
2019-05-06T11:11:15.031Z,4.12
2019-05-06T11:12:08.731Z,4.10
2019-05-06T11:13:13.259Z,3.60
2019-05-06T11:14:17.448Z,4.33
2019-05-06T11:15:23.336Z,4.00
2019-05-06T11:16:28.053Z,4.40
2019-05-06T11:17:32.664Z,4.40
2019-05-06T11:18:37.925Z,4.35
2019-05-06T11:19:44.340Z,4.40
2019-05-06T11:20:52.970Z,4.78
2019-05-06T11:21:54.659Z,3.98
2019-05-06T11:22:59.227Z,4.00
2019-05-06T11:24:06.289Z,3.84
2019-05-06T11:25:12.317Z,4.30
2019-05-06T11:26:16.736Z,3.87
2019-05-06T11:27:28.673Z,3.57
2019-05-06T11:28:42.670Z,3.67
2019-05-06T11:29:53.044Z,3.83
2019-05-06T11:30:58.911Z,4.40
2019-05-06T11:32:04.828Z,6.25
2019-05-06T11:33:12.634Z,6.37
2019-05-06T11:34:24.156Z,7.42
2019-05-06T11:35:45.921Z,6.35
2019-05-06T11:37:00.401Z,9.48
2019-05-06T11:38:06.720Z,7.30
2019-05-06T11:39:13.988Z,4.77
2019-05-06T11:40:17.368Z,5.10
2019-05-06T11:41:23.355Z,4.47
2019-05-06T11:42:32.428Z,4.90
2019-05-06T11:43:34.203Z,4.97
2019-05-06T11:44:38.691Z,5.33
2019-05-06T11:45:42.950Z,11.40
2019-05-06T11:46:47.145Z,5.17
2019-05-06T11:47:55.439Z,9.00
2019-05-06T11:48:58.058Z,5.75
2019-05-06T11:50:05.005Z,4.72
2019-05-06T11:51:12.720Z,16.65
2019-05-06T11:52:15.722Z,23.07
2019-05-06T11:53:19.924Z,18.53
2019-05-06T11:54:24.780Z,15.43
2019-05-06T11:55:34.383Z,10.32
2019-05-06T11:56:47.915Z,3.62
2019-05-06T11:57:44.645Z,3.85
2019-05-06T11:58:49.876Z,3.85
2019-05-06T11:59:54.363Z,3.65
2019-05-06T12:01:02.576Z,3.40
2019-05-06T12:02:07.402Z,3.70
2019-05-06T12:03:13.805Z,3.13
2019-05-06T12:04:18.298Z,3.70
2019-05-06T12:05:22.515Z,3.77
2019-05-06T12:06:26.911Z,3.60
2019-05-06T12:07:33.222Z,3.05
2019-05-06T12:08:36.956Z,3.10
2019-05-06T12:09:41.147Z,3.35
2019-05-06T12:10:45.389Z,3.30
2019-05-06T12:11:49.670Z,5.53
2019-05-06T12:12:53.847Z,4.17
2019-05-06T12:13:58.097Z,4.30
2019-05-06T12:15:03.483Z,2.52
2019-05-06T12:16:09.547Z,2.90
2019-05-06T12:17:14.178Z,3.40
2019-05-06T12:18:18.992Z,3.10
2019-05-06T12:19:23.383Z,2.37
2019-05-06T12:20:27.887Z,2.62
2019-05-06T12:21:33.119Z,2.45
2019-05-06T12:22:37.542Z,3.08
2019-05-06T12:23:44.932Z,2.72
2019-05-06T12:24:47.868Z,3.00
2019-05-06T12:25:52.902Z,3.17
2019-05-06T12:26:57.305Z,3.30
2019-05-06T12:28:03.040Z,3.08
2019-05-06T12:29:09.169Z,3.00
2019-05-06T12:30:14.962Z,2.80
2019-05-06T12:31:19.286Z,2.90
2019-05-06T12:32:28.470Z,2.70
2019-05-06T12:33:37.583Z,2.52
2019-05-06T12:34:42.971Z,2.52
2019-05-06T12:35:52.023Z,2.15
2019-05-06T12:36:55.624Z,2.58
2019-05-06T12:38:06.790Z,2.70
2019-05-06T12:39:19.620Z,2.60
2019-05-06T12:40:23.600Z,2.60
2019-05-06T12:41:29.056Z,2.62
2019-05-06T12:42:37.823Z,2.77
2019-05-06T12:43:45.526Z,2.90
2019-05-06T12:44:52.954Z,2.65
2019-05-06T12:46:04.953Z,2.77
2019-05-06T12:47:19.803Z,2.83
2019-05-06T12:48:28.587Z,2.40
2019-05-06T12:49:32.812Z,2.33
2019-05-06T12:50:37.020Z,2.45
2019-05-06T12:51:43.366Z,2.50
2019-05-06T12:52:47.208Z,2.50
2019-05-06T12:53:54.420Z,2.83
2019-05-06T12:55:14.726Z,2.55
2019-05-06T12:56:05.566Z,2.25
2019-05-06T12:57:12.426Z,2.47
2019-05-06T12:58:20.044Z,2.60
2019-05-06T12:59:22.283Z,2.10
2019-05-06T13:00:28.291Z,2.05
2019-05-06T13:01:34.002Z,2.20
2019-05-06T13:02:38.522Z,2.40
2019-05-06T13:03:44.482Z,2.50
2019-05-06T13:04:57.689Z,2.30
2019-05-06T13:05:55.025Z,2.33
2019-05-06T13:06:59.568Z,2.67
2019-05-06T13:08:06.274Z,2.90
2019-05-06T13:09:12.748Z,2.70
2019-05-06T13:10:19.205Z,2.40
2019-05-06T13:11:24.849Z,2.67
2019-05-06T13:12:33.513Z,1.90
2019-05-06T13:13:37.180Z,1.98
2019-05-06T13:14:43.096Z,1.90
2019-05-06T13:15:47.327Z,1.80
2019-05-06T13:16:53.209Z,1.80
2019-05-06T13:17:57.610Z,2.20
2019-05-06T13:19:03.282Z,2.10
2019-05-06T13:20:08.008Z,1.98
2019-05-06T13:21:12.805Z,1.77
2019-05-06T13:22:18.870Z,1.87
2019-05-06T13:23:25.775Z,1.90
2019-05-06T13:24:32.579Z,1.98
2019-05-06T13:25:36.824Z,2.05
2019-05-06T13:26:43.200Z,1.82
2019-05-06T13:27:47.788Z,2.40
2019-05-06T13:28:53.603Z,1.90
2019-05-06T13:29:57.839Z,1.77
2019-05-06T13:31:16.001Z,1.95
2019-05-06T13:32:09.779Z,1.72
2019-05-06T13:33:34.160Z,1.97
2019-05-06T13:34:37.430Z,1.67
2019-05-06T13:35:42.007Z,1.85
2019-05-06T13:36:46.389Z,2.25
2019-05-06T13:37:52.675Z,2.25
2019-05-06T13:39:09.541Z,2.10
2019-05-06T13:40:03.486Z,2.22
2019-05-06T13:41:07.792Z,3.12
2019-05-06T13:42:13.772Z,3.00
2019-05-06T13:43:19.836Z,2.05
2019-05-06T13:44:24.042Z,2.33
2019-05-06T13:45:28.301Z,2.35
2019-05-06T13:46:34.181Z,1.92
2019-05-06T13:47:48.922Z,2.00
2019-05-06T13:48:57.435Z,1.90
2019-05-06T13:50:02.948Z,2.25
2019-05-06T13:51:09.684Z,1.82
2019-05-06T13:52:13.991Z,2.03
2019-05-06T13:53:18.231Z,2.43
2019-05-06T13:54:22.639Z,2.00
2019-05-06T13:55:26.885Z,1.70
2019-05-06T13:56:33.110Z,1.77
2019-05-06T13:57:39.399Z,1.92
2019-05-06T13:58:43.862Z,1.62
2019-05-06T13:59:48.203Z,2.27
2019-05-06T14:00:52.473Z,2.25
2019-05-06T14:01:58.373Z,2.35
2019-05-06T14:03:02.650Z,2.00
2019-05-06T14:04:06.853Z,1.98
2019-05-06T14:05:12.169Z,2.40
2019-05-06T14:06:17.727Z,1.70
2019-05-06T14:07:24.260Z,1.93
2019-05-06T14:08:27.871Z,1.87
2019-05-06T14:09:39.314Z,2.35
2019-05-06T14:10:38.059Z,2.17
2019-05-06T14:11:42.435Z,2.70
2019-05-06T14:12:46.598Z,2.55
2019-05-06T14:13:52.924Z,2.00
2019-05-06T14:14:57.939Z,2.15
2019-05-06T14:16:03.984Z,2.10
2019-05-06T14:17:07.982Z,1.72
2019-05-06T14:18:13.419Z,1.70
2019-05-06T14:19:17.782Z,1.80
2019-05-06T14:20:22.145Z,1.70
2019-05-06T14:21:26.322Z,1.80
2019-05-06T14:22:32.634Z,1.87
2019-05-06T14:23:37.108Z,1.90
2019-05-06T14:24:43.308Z,2.00
2019-05-06T14:26:03.968Z,1.70
2019-05-06T14:27:08.155Z,1.80
2019-05-06T14:28:29.022Z,2.23
2019-05-06T14:29:42.133Z,2.08
2019-05-06T14:30:59.925Z,2.15
2019-05-06T14:32:04.408Z,1.90
2019-05-06T14:33:15.126Z,1.75
2019-05-06T14:34:16.135Z,1.80
2019-05-06T14:35:22.670Z,2.10
2019-05-06T14:36:27.736Z,2.15
2019-05-06T14:37:32.937Z,2.40
2019-05-06T14:38:37.180Z,1.83
2019-05-06T14:39:54.062Z,3.40